createdAt,value
2022-12-05T00:00:30.196Z,1010.32
2022-12-05T00:01:30.185Z,1010.25
2022-12-05T00:02:30.225Z,1010.24
2022-12-05T00:03:30.160Z,1010.26
2022-12-05T00:04:30.222Z,1010.21
2022-12-05T00:05:30.170Z,1010.20
2022-12-05T00:06:30.124Z,1010.22
2022-12-05T00:07:30.182Z,1010.20
2022-12-05T00:08:30.134Z,1010.17
2022-12-05T00:09:30.090Z,1010.20
2022-12-05T00:10:30.083Z,1010.14
2022-12-05T00:11:30.119Z,1010.13
2022-12-05T00:12:30.067Z,1010.15
2022-12-05T00:13:30.045Z,1010.10
2022-12-05T00:14:30.039Z,1010.14
2022-12-05T00:15:30.026Z,1010.15
2022-12-05T00:16:30.070Z,1010.14
2022-12-05T00:17:30.461Z,1010.14
2022-12-05T00:18:29.997Z,1010.14
2022-12-05T00:19:29.982Z,1010.15
2022-12-05T00:20:29.973Z,1010.14
2022-12-05T00:21:29.955Z,1010.18
2022-12-05T00:22:29.951Z,1010.11
2022-12-05T00:23:29.983Z,1010.18
2022-12-05T00:24:29.933Z,1010.17
2022-12-05T00:25:29.913Z,1010.18
2022-12-05T00:26:29.905Z,1010.15
2022-12-05T00:27:29.893Z,1010.13
2022-12-05T00:28:29.883Z,1010.18
2022-12-05T00:29:29.892Z,1010.16
2022-12-05T00:30:29.862Z,1010.18
2022-12-05T00:31:29.902Z,1010.20
2022-12-05T00:32:29.842Z,1010.22
2022-12-05T00:33:29.824Z,1010.20
2022-12-05T00:34:29.822Z,1010.22
2022-12-05T00:35:29.835Z,1010.18
2022-12-05T00:36:29.803Z,1010.24
2022-12-05T00:37:29.781Z,1010.21
2022-12-05T00:38:29.774Z,1010.20
2022-12-05T00:39:29.759Z,1010.16
2022-12-05T00:40:29.751Z,1010.17
2022-12-05T00:41:29.771Z,1010.16
2022-12-05T00:42:29.729Z,1010.13
2022-12-05T00:43:29.714Z,1010.12
2022-12-05T00:44:29.730Z,1010.12
2022-12-05T00:45:29.700Z,1010.07
2022-12-05T00:46:29.750Z,1010.08
2022-12-05T00:47:29.697Z,1010.07
2022-12-05T00:48:29.663Z,1010.10
2022-12-05T00:49:29.646Z,1010.14
2022-12-05T00:50:29.641Z,1010.07
2022-12-05T00:51:29.640Z,1010.12
2022-12-05T00:52:29.648Z,1010.11
2022-12-05T00:53:29.611Z,1010.14
2022-12-05T00:54:29.596Z,1010.10
2022-12-05T00:55:29.581Z,1010.19
2022-12-05T00:56:29.576Z,1010.16
2022-12-05T00:57:29.594Z,1010.09
2022-12-05T00:58:29.575Z,1010.14
2022-12-05T00:59:29.535Z,1010.11
2022-12-05T01:00:29.523Z,1010.17
2022-12-05T01:01:29.638Z,1010.14
2022-12-05T01:02:29.502Z,1010.11
2022-12-05T01:03:29.575Z,1010.08
2022-12-05T01:04:29.519Z,1010.13
2022-12-05T01:05:29.477Z,1010.15
2022-12-05T01:06:29.459Z,1010.13
2022-12-05T01:07:29.527Z,1010.12
2022-12-05T01:08:29.446Z,1010.10
2022-12-05T01:09:29.424Z,1010.09
2022-12-05T01:10:29.450Z,1010.16
2022-12-05T01:11:29.409Z,1010.13
2022-12-05T01:12:29.395Z,1010.13
2022-12-05T01:13:29.383Z,1010.16
2022-12-05T01:14:29.377Z,1010.12
2022-12-05T01:15:29.370Z,1010.10
2022-12-05T01:16:29.562Z,1010.13
2022-12-05T01:17:29.336Z,1010.15
2022-12-05T01:18:29.336Z,1010.13
2022-12-05T01:19:29.333Z,1010.09
2022-12-05T01:20:29.318Z,1010.11
2022-12-05T01:21:29.301Z,1010.12
2022-12-05T01:22:29.318Z,1010.17
2022-12-05T01:23:29.301Z,1010.17
2022-12-05T01:24:29.265Z,1010.17
2022-12-05T01:25:29.269Z,1010.19
2022-12-05T01:26:29.239Z,1010.17
2022-12-05T01:27:29.231Z,1010.19
2022-12-05T01:28:29.288Z,1010.15
2022-12-05T01:29:29.205Z,1010.20
2022-12-05T01:30:29.198Z,1010.13
2022-12-05T01:31:29.265Z,1010.14
2022-12-05T01:32:29.189Z,1010.14
2022-12-05T01:33:29.164Z,1010.13
2022-12-05T01:34:29.194Z,1010.12
2022-12-05T01:35:29.136Z,1010.16
2022-12-05T01:36:29.134Z,1010.14
2022-12-05T01:37:29.114Z,1010.12
2022-12-05T01:38:29.119Z,1010.10
2022-12-05T01:39:29.091Z,1010.14
2022-12-05T01:40:29.125Z,1010.13
2022-12-05T01:41:29.068Z,1010.15
2022-12-05T01:42:29.061Z,1010.18
2022-12-05T01:43:29.044Z,1010.12
2022-12-05T01:44:29.059Z,1010.22
2022-12-05T01:45:29.133Z,1010.20
2022-12-05T01:46:29.166Z,1010.19
2022-12-05T01:47:29.001Z,1010.17
2022-12-05T01:48:29.002Z,1010.19
2022-12-05T01:49:28.977Z,1010.16
2022-12-05T01:50:28.973Z,1010.24
2022-12-05T01:51:28.959Z,1010.22
2022-12-05T01:52:28.982Z,1010.23
2022-12-05T01:53:28.939Z,1010.23
2022-12-05T01:54:28.929Z,1010.23
2022-12-05T01:55:28.916Z,1010.25
2022-12-05T01:56:28.907Z,1010.29
2022-12-05T01:57:28.890Z,1010.29
2022-12-05T01:58:28.909Z,1010.26
2022-12-05T01:59:28.872Z,1010.28
2022-12-05T02:00:28.864Z,1010.25
2022-12-05T02:01:28.967Z,1010.23
2022-12-05T02:02:28.864Z,1010.27
2022-12-05T02:03:28.827Z,1010.30
2022-12-05T02:04:28.844Z,1010.33
2022-12-05T02:05:28.803Z,1010.30
2022-12-05T02:06:28.802Z,1010.31
2022-12-05T02:07:28.815Z,1010.31
2022-12-05T02:08:28.766Z,1010.29
2022-12-05T02:09:28.763Z,1010.30
2022-12-05T02:10:28.772Z,1010.31
2022-12-05T02:11:28.745Z,1010.30
2022-12-05T02:12:28.725Z,1010.27
2022-12-05T02:13:28.727Z,1010.32
2022-12-05T02:14:28.707Z,1010.26
2022-12-05T02:15:28.700Z,1010.32
2022-12-05T02:16:28.732Z,1010.36
2022-12-05T02:17:28.678Z,1010.30
2022-12-05T02:18:28.662Z,1010.30
2022-12-05T02:19:28.652Z,1010.27
2022-12-05T02:20:28.639Z,1010.30
2022-12-05T02:21:28.660Z,1010.24
2022-12-05T02:22:28.618Z,1010.26
2022-12-05T02:23:28.606Z,1010.20
2022-12-05T02:24:28.595Z,1010.25
2022-12-05T02:25:28.588Z,1010.26
2022-12-05T02:26:28.573Z,1010.26
2022-12-05T02:27:28.587Z,1010.27
2022-12-05T02:28:28.546Z,1010.27
2022-12-05T02:29:28.539Z,1010.27
2022-12-05T02:30:28.525Z,1010.26
2022-12-05T02:31:28.582Z,1010.29
2022-12-05T02:32:28.505Z,1010.28
2022-12-05T02:33:28.517Z,1010.30
2022-12-05T02:34:28.504Z,1010.29
2022-12-05T02:35:28.475Z,1010.30
2022-12-05T02:36:28.464Z,1010.33
2022-12-05T02:37:28.463Z,1010.31
2022-12-05T02:38:28.438Z,1010.30
2022-12-05T02:39:28.454Z,1010.29
2022-12-05T02:40:28.414Z,1010.30
2022-12-05T02:41:28.413Z,1010.32
2022-12-05T02:42:28.396Z,1010.34
2022-12-05T02:43:28.387Z,1010.30
2022-12-05T02:44:28.388Z,1010.35
2022-12-05T02:45:28.434Z,1010.28
2022-12-05T02:46:28.477Z,1010.28
2022-12-05T02:47:28.345Z,1010.31
2022-12-05T02:48:28.330Z,1010.31
2022-12-05T02:49:28.344Z,1010.31
2022-12-05T02:50:28.303Z,1010.35
2022-12-05T02:51:28.302Z,1010.36
2022-12-05T02:52:28.283Z,1010.29
2022-12-05T02:53:28.276Z,1010.33
2022-12-05T02:54:28.284Z,1010.31
2022-12-05T02:55:28.256Z,1010.34
2022-12-05T02:56:28.238Z,1010.32
2022-12-05T02:57:28.234Z,1010.32
2022-12-05T02:58:28.220Z,1010.36
2022-12-05T02:59:28.255Z,1010.36
2022-12-05T03:00:28.200Z,1010.36
2022-12-05T03:01:28.245Z,1010.30
2022-12-05T03:02:28.172Z,1010.30
2022-12-05T03:03:28.168Z,1010.33
2022-12-05T03:04:28.225Z,1010.28
2022-12-05T03:05:28.144Z,1010.34
2022-12-05T03:06:28.133Z,1010.33
2022-12-05T03:07:28.145Z,1010.35
2022-12-05T03:08:28.150Z,1010.31
2022-12-05T03:09:28.116Z,1010.33
2022-12-05T03:10:28.096Z,1010.33
2022-12-05T03:11:28.074Z,1010.38
2022-12-05T03:12:28.068Z,1010.34
2022-12-05T03:13:28.055Z,1010.37
2022-12-05T03:14:28.067Z,1010.39
2022-12-05T03:15:28.029Z,1010.33
2022-12-05T03:16:28.096Z,1010.33
2022-12-05T03:17:28.009Z,1010.32
2022-12-05T03:18:28.003Z,1010.29
2022-12-05T03:19:28.014Z,1010.27
2022-12-05T03:20:27.979Z,1010.33
2022-12-05T03:21:27.962Z,1010.29
2022-12-05T03:22:27.968Z,1010.31
2022-12-05T03:23:27.942Z,1010.25
2022-12-05T03:24:27.964Z,1010.23
2022-12-05T03:25:27.920Z,1010.29
2022-12-05T03:26:27.917Z,1010.27
2022-12-05T03:27:27.909Z,1010.30
2022-12-05T03:28:27.889Z,1010.31
2022-12-05T03:29:27.898Z,1010.32
2022-12-05T03:30:27.924Z,1010.24
2022-12-05T03:31:27.904Z,1010.25
2022-12-05T03:32:27.848Z,1010.28
2022-12-05T03:33:27.832Z,1010.22
2022-12-05T03:34:27.858Z,1010.23
2022-12-05T03:35:27.811Z,1010.26
2022-12-05T03:36:27.803Z,1010.19
2022-12-05T03:37:27.789Z,1010.21
2022-12-05T03:38:27.778Z,1010.17
2022-12-05T03:39:27.784Z,1010.23
2022-12-05T03:40:27.764Z,1010.20
2022-12-05T03:41:27.745Z,1010.22
2022-12-05T03:42:27.736Z,1010.19
2022-12-05T03:43:27.722Z,1010.25
2022-12-05T03:44:27.736Z,1010.22
2022-12-05T03:45:27.701Z,1010.21
2022-12-05T03:46:27.742Z,1010.27
2022-12-05T03:47:27.676Z,1010.24
2022-12-05T03:48:27.672Z,1010.22
2022-12-05T03:49:33.446Z,1010.21
2022-12-05T03:50:27.653Z,1010.21
2022-12-05T03:51:27.631Z,1010.25
2022-12-05T03:52:27.629Z,1010.24
2022-12-05T03:53:27.609Z,1010.19
2022-12-05T03:54:27.630Z,1010.26
2022-12-05T03:55:27.594Z,1010.26
2022-12-05T03:56:27.582Z,1010.27
2022-12-05T03:57:27.564Z,1010.31
2022-12-05T03:58:27.604Z,1010.27
2022-12-05T03:59:27.566Z,1010.29
2022-12-05T04:00:27.542Z,1010.28
2022-12-05T04:01:27.581Z,1010.26
2022-12-05T04:02:27.520Z,1010.25
2022-12-05T04:03:27.568Z,1010.26
2022-12-05T04:04:27.515Z,1010.25
2022-12-05T04:05:27.477Z,1010.27
2022-12-05T04:06:27.471Z,1010.29
2022-12-05T04:07:27.455Z,1010.31
2022-12-05T04:08:27.446Z,1010.26
2022-12-05T04:09:27.471Z,1010.29
2022-12-05T04:10:27.429Z,1010.29
2022-12-05T04:11:27.416Z,1010.30
2022-12-05T04:12:27.401Z,1010.28
2022-12-05T04:13:27.396Z,1010.29
2022-12-05T04:14:27.399Z,1010.29
2022-12-05T04:15:27.593Z,1010.30
2022-12-05T04:16:27.421Z,1010.29
2022-12-05T04:17:27.352Z,1010.30
2022-12-05T04:18:27.335Z,1010.29
2022-12-05T04:19:27.348Z,1010.31
2022-12-05T04:20:27.317Z,1010.29
2022-12-05T04:21:27.307Z,1010.30
2022-12-05T04:22:27.289Z,1010.35
2022-12-05T04:23:27.284Z,1010.37
2022-12-05T04:24:27.288Z,1010.33
2022-12-05T04:25:27.265Z,1010.37
2022-12-05T04:26:27.254Z,1010.35
2022-12-05T04:27:27.249Z,1010.32
2022-12-05T04:28:27.224Z,1010.37
2022-12-05T04:29:27.239Z,1010.33
2022-12-05T04:30:27.202Z,1010.39
2022-12-05T04:31:27.305Z,1010.39
2022-12-05T04:32:27.188Z,1010.43
2022-12-05T04:33:27.176Z,1010.41
2022-12-05T04:34:27.185Z,1010.35
2022-12-05T04:35:27.153Z,1010.40
2022-12-05T04:36:27.136Z,1010.37
2022-12-05T04:37:27.146Z,1010.37
2022-12-05T04:38:27.114Z,1010.36
2022-12-05T04:39:27.127Z,1010.38
2022-12-05T04:40:27.092Z,1010.38
2022-12-05T04:41:27.089Z,1010.40
2022-12-05T04:42:27.071Z,1010.36
2022-12-05T04:43:27.063Z,1010.41
2022-12-05T04:44:27.067Z,1010.38
2022-12-05T04:45:27.040Z,1010.37
2022-12-05T04:46:27.082Z,1010.43
2022-12-05T04:47:27.020Z,1010.43
2022-12-05T04:48:27.007Z,1010.42
2022-12-05T04:49:27.021Z,1010.43
2022-12-05T04:50:26.983Z,1010.44
2022-12-05T04:51:26.976Z,1010.44
2022-12-05T04:52:26.961Z,1010.42
2022-12-05T04:53:26.956Z,1010.39
2022-12-05T04:54:26.961Z,1010.35
2022-12-05T04:55:26.931Z,1010.40
2022-12-05T04:56:26.925Z,1010.44
2022-12-05T04:57:26.914Z,1010.41
2022-12-05T04:58:26.901Z,1010.44
2022-12-05T04:59:26.913Z,1010.44
2022-12-05T05:00:26.872Z,1010.40
2022-12-05T05:01:26.940Z,1010.43
2022-12-05T05:02:26.899Z,1010.38
2022-12-05T05:03:26.860Z,1010.46
2022-12-05T05:04:26.850Z,1010.39
2022-12-05T05:05:26.820Z,1010.38
2022-12-05T05:06:26.816Z,1010.34
2022-12-05T05:07:26.799Z,1010.38
2022-12-05T05:08:26.793Z,1010.34
2022-12-05T05:09:26.796Z,1010.41
2022-12-05T05:10:26.770Z,1010.37
2022-12-05T05:11:26.760Z,1010.39
2022-12-05T05:12:26.740Z,1010.41
2022-12-05T05:13:26.738Z,1010.41
2022-12-05T05:14:26.740Z,1010.41
2022-12-05T05:15:26.713Z,1010.39
2022-12-05T05:16:26.773Z,1010.45
2022-12-05T05:17:26.729Z,1010.45
2022-12-05T05:18:26.676Z,1010.40
2022-12-05T05:19:26.691Z,1010.41
2022-12-05T05:20:26.654Z,1010.39
2022-12-05T05:21:26.651Z,1010.42
2022-12-05T05:22:26.631Z,1010.45
2022-12-05T05:23:26.624Z,1010.43
2022-12-05T05:24:26.632Z,1010.45
2022-12-05T05:25:26.609Z,1010.48
2022-12-05T05:26:26.592Z,1010.51
2022-12-05T05:27:26.591Z,1010.45
2022-12-05T05:28:26.567Z,1010.45
2022-12-05T05:29:26.584Z,1010.48
2022-12-05T05:30:26.567Z,1010.53
2022-12-05T05:31:26.571Z,1010.47
2022-12-05T05:32:26.521Z,1010.46
2022-12-05T05:33:26.511Z,1010.51
2022-12-05T05:34:26.525Z,1010.50
2022-12-05T05:35:26.495Z,1010.53
2022-12-05T05:36:26.477Z,1010.52
2022-12-05T05:37:26.471Z,1010.55
2022-12-05T05:38:26.455Z,1010.56
2022-12-05T05:39:26.469Z,1010.55
2022-12-05T05:40:26.433Z,1010.51
2022-12-05T05:41:26.427Z,1010.57
2022-12-05T05:42:26.409Z,1010.57
2022-12-05T05:43:26.404Z,1010.51
2022-12-05T05:44:26.409Z,1010.55
2022-12-05T05:45:26.382Z,1010.56
2022-12-05T05:46:26.437Z,1010.58
2022-12-05T05:47:26.358Z,1010.52
2022-12-05T05:48:26.345Z,1010.52
2022-12-05T05:49:26.356Z,1010.58
2022-12-05T05:50:26.321Z,1010.52
2022-12-05T05:51:26.319Z,1010.58
2022-12-05T05:52:26.301Z,1010.53
2022-12-05T05:53:26.301Z,1010.55
2022-12-05T05:54:26.301Z,1010.55
2022-12-05T05:55:26.276Z,1010.54
2022-12-05T05:56:26.260Z,1010.54
2022-12-05T05:57:26.249Z,1010.54
2022-12-05T05:58:26.233Z,1010.53
2022-12-05T05:59:26.248Z,1010.56
2022-12-05T06:00:26.216Z,1010.56
2022-12-05T06:01:26.206Z,1010.54
2022-12-05T06:02:26.285Z,1010.56
2022-12-05T06:03:26.367Z,1010.54
2022-12-05T06:04:26.228Z,1010.54
2022-12-05T06:05:26.199Z,1010.54
2022-12-05T06:06:26.152Z,1010.55
2022-12-05T06:07:26.156Z,1010.55
2022-12-05T06:08:26.282Z,1010.60
2022-12-05T06:09:26.155Z,1010.55
2022-12-05T06:10:26.106Z,1010.59
2022-12-05T06:11:26.918Z,1010.57
2022-12-05T06:12:26.082Z,1010.56
2022-12-05T06:13:26.070Z,1010.57
2022-12-05T06:14:26.094Z,1010.58
2022-12-05T06:15:26.046Z,1010.54
2022-12-05T06:16:26.074Z,1010.58
2022-12-05T06:17:26.022Z,1010.55
2022-12-05T06:18:26.017Z,1010.59
2022-12-05T06:19:26.023Z,1010.59
2022-12-05T06:20:25.997Z,1010.60
2022-12-05T06:21:26.075Z,1010.61
2022-12-05T06:22:25.987Z,1010.59
2022-12-05T06:23:25.961Z,1010.59
2022-12-05T06:24:25.979Z,1010.63
2022-12-05T06:25:25.936Z,1010.61
2022-12-05T06:26:25.931Z,1010.62
2022-12-05T06:27:25.930Z,1010.63
2022-12-05T06:28:25.909Z,1010.66
2022-12-05T06:29:28.262Z,1010.64
2022-12-05T06:30:25.894Z,1010.65
2022-12-05T06:31:25.949Z,1010.64
2022-12-05T06:32:25.943Z,1010.64
2022-12-05T06:33:25.848Z,1010.64
2022-12-05T06:34:25.860Z,1010.62
2022-12-05T06:35:25.825Z,1010.62
2022-12-05T06:36:25.819Z,1010.65
2022-12-05T06:37:25.827Z,1010.65
2022-12-05T06:38:25.799Z,1010.68
2022-12-05T06:39:25.802Z,1010.61
2022-12-05T06:40:25.812Z,1010.66
2022-12-05T06:41:25.764Z,1010.62
2022-12-05T06:42:25.754Z,1010.66
2022-12-05T06:43:25.739Z,1010.68
2022-12-05T06:44:25.753Z,1010.67
2022-12-05T06:45:25.844Z,1010.73
2022-12-05T06:46:25.765Z,1010.67
2022-12-05T06:47:25.736Z,1010.65
2022-12-05T06:48:25.689Z,1010.66
2022-12-05T06:49:30.765Z,1010.68
2022-12-05T06:50:25.670Z,1010.70
2022-12-05T06:51:25.646Z,1010.69
2022-12-05T06:52:25.644Z,1010.69
2022-12-05T06:53:25.629Z,1010.71
2022-12-05T06:54:25.644Z,1010.72
2022-12-05T06:55:25.603Z,1010.74
2022-12-05T06:56:25.600Z,1010.71
2022-12-05T06:57:25.614Z,1010.72
2022-12-05T06:58:25.574Z,1010.73
2022-12-05T06:59:25.580Z,1010.73
2022-12-05T07:00:25.553Z,1010.74
2022-12-05T07:01:25.657Z,1010.73
2022-12-05T07:02:25.614Z,1010.76
2022-12-05T07:03:25.541Z,1010.78
2022-12-05T07:04:25.537Z,1010.76
2022-12-05T07:05:25.512Z,1010.73
2022-12-05T07:06:25.489Z,1010.76
2022-12-05T07:07:25.489Z,1010.78
2022-12-05T07:08:25.507Z,1010.78
2022-12-05T07:09:25.476Z,1010.75
2022-12-05T07:10:25.441Z,1010.78
2022-12-05T07:11:25.435Z,1010.82
2022-12-05T07:12:25.424Z,1010.79
2022-12-05T07:13:25.408Z,1010.81
2022-12-05T07:14:46.573Z,1010.83
2022-12-05T07:15:25.393Z,1010.81
2022-12-05T07:16:25.471Z,1010.81
2022-12-05T07:17:25.369Z,1010.83
2022-12-05T07:18:25.449Z,1010.80
2022-12-05T07:19:25.367Z,1010.85
2022-12-05T07:20:30.235Z,1010.82
2022-12-05T07:21:25.330Z,1010.81
2022-12-05T07:22:25.309Z,1010.83
2022-12-05T07:23:25.300Z,1010.80
2022-12-05T07:24:25.311Z,1010.82
2022-12-05T07:25:25.279Z,1010.82
2022-12-05T07:26:25.264Z,1010.88
2022-12-05T07:27:27.683Z,1010.84
2022-12-05T07:28:25.241Z,1010.84
2022-12-05T07:29:25.256Z,1010.90
2022-12-05T07:30:25.228Z,1010.89
2022-12-05T07:31:25.292Z,1010.87
2022-12-05T07:32:25.195Z,1010.88
2022-12-05T07:33:25.193Z,1010.91
2022-12-05T07:34:25.194Z,1010.94
2022-12-05T07:35:25.169Z,1010.89
2022-12-05T07:36:25.155Z,1010.87
2022-12-05T07:37:25.146Z,1010.93
2022-12-05T07:38:25.132Z,1010.91
2022-12-05T07:39:26.242Z,1010.93
2022-12-05T07:40:25.116Z,1010.94
2022-12-05T07:41:25.110Z,1011.01
2022-12-05T07:42:25.090Z,1010.97
2022-12-05T07:43:25.077Z,1010.99
2022-12-05T07:44:25.081Z,1011.00
2022-12-05T07:45:25.057Z,1011.02
2022-12-05T07:46:25.207Z,1011.04
2022-12-05T07:47:25.131Z,1011.04
2022-12-05T07:48:25.019Z,1011.03
2022-12-05T07:49:25.035Z,1011.05
2022-12-05T07:50:24.996Z,1011.08
2022-12-05T07:51:24.994Z,1011.09
2022-12-05T07:52:24.974Z,1011.10
2022-12-05T07:53:24.974Z,1011.06
2022-12-05T07:54:24.976Z,1011.08
2022-12-05T07:55:24.951Z,1011.10
2022-12-05T07:56:24.936Z,1011.11
2022-12-05T07:57:24.922Z,1011.14
2022-12-05T07:58:24.909Z,1011.10
2022-12-05T07:59:24.930Z,1011.13
2022-12-05T08:00:24.889Z,1011.11
2022-12-05T08:01:24.961Z,1011.10
2022-12-05T08:02:24.940Z,1011.09
2022-12-05T08:03:24.863Z,1011.10
2022-12-05T08:04:24.875Z,1011.14
2022-12-05T08:05:24.842Z,1011.13
2022-12-05T08:06:24.825Z,1011.18
2022-12-05T08:07:24.815Z,1011.18
2022-12-05T08:08:24.861Z,1011.13
2022-12-05T08:09:24.813Z,1011.15
2022-12-05T08:10:24.793Z,1011.19
2022-12-05T08:11:24.769Z,1011.18
2022-12-05T08:12:24.763Z,1011.20
2022-12-05T08:13:24.750Z,1011.16
2022-12-05T08:14:24.761Z,1011.21
2022-12-05T08:15:24.721Z,1011.16
2022-12-05T08:16:24.733Z,1011.19
2022-12-05T08:17:24.697Z,1011.22
2022-12-05T08:18:27.468Z,1011.23
2022-12-05T08:19:24.702Z,1011.20
2022-12-05T08:20:24.674Z,1011.27
2022-12-05T08:21:24.655Z,1011.25
2022-12-05T08:22:24.653Z,1011.30
2022-12-05T08:23:24.631Z,1011.27
2022-12-05T08:24:24.657Z,1011.29
2022-12-05T08:25:24.619Z,1011.33
2022-12-05T08:26:24.610Z,1011.29
2022-12-05T08:27:24.594Z,1011.29
2022-12-05T08:28:24.583Z,1011.32
2022-12-05T08:29:24.591Z,1011.33
2022-12-05T08:30:24.622Z,1011.31
2022-12-05T08:31:24.652Z,1011.34
2022-12-05T08:32:24.541Z,1011.38
2022-12-05T08:33:24.526Z,1011.37
2022-12-05T08:34:24.548Z,1011.30
2022-12-05T08:35:24.515Z,1011.33
2022-12-05T08:36:24.519Z,1011.33
2022-12-05T08:37:24.480Z,1011.36
2022-12-05T08:38:24.472Z,1011.35
2022-12-05T08:39:24.488Z,1011.41
2022-12-05T08:40:24.466Z,1011.38
2022-12-05T08:41:24.436Z,1011.41
2022-12-05T08:42:24.434Z,1011.43
2022-12-05T08:43:24.418Z,1011.42
2022-12-05T08:44:24.428Z,1011.42
2022-12-05T08:45:24.398Z,1011.45
2022-12-05T08:46:24.483Z,1011.43
2022-12-05T08:47:24.385Z,1011.45
2022-12-05T08:48:28.959Z,1011.43
2022-12-05T08:49:24.377Z,1011.40
2022-12-05T08:50:24.368Z,1011.43
2022-12-05T08:51:24.328Z,1011.41
2022-12-05T08:52:24.322Z,1011.37
2022-12-05T08:53:24.305Z,1011.40
2022-12-05T08:54:24.319Z,1011.44
2022-12-05T08:55:24.280Z,1011.44
2022-12-05T08:56:27.226Z,1011.43
2022-12-05T08:57:24.299Z,1011.49
2022-12-05T08:58:24.254Z,1011.53
2022-12-05T08:59:24.272Z,1011.47
2022-12-05T09:00:24.227Z,1011.45
2022-12-05T09:01:24.276Z,1011.45
2022-12-05T09:02:24.273Z,1011.48
2022-12-05T09:03:24.192Z,1011.46
2022-12-05T09:04:24.205Z,1011.48
2022-12-05T09:05:28.072Z,1011.47
2022-12-05T09:06:24.161Z,1011.48
2022-12-05T09:07:24.155Z,1011.50
2022-12-05T09:08:24.207Z,1011.48
2022-12-05T09:09:24.177Z,1011.51
2022-12-05T09:10:24.114Z,1011.48
2022-12-05T09:11:24.110Z,1011.47
2022-12-05T09:12:24.094Z,1011.49
2022-12-05T09:13:24.126Z,1011.50
2022-12-05T09:14:24.107Z,1011.49
2022-12-05T09:15:24.148Z,1011.48
2022-12-05T09:16:24.172Z,1011.52
2022-12-05T09:17:24.041Z,1011.51
2022-12-05T09:18:24.029Z,1011.53
2022-12-05T09:19:24.044Z,1011.56
2022-12-05T09:20:24.066Z,1011.52
2022-12-05T09:21:24.000Z,1011.54
2022-12-05T09:22:23.986Z,1011.55
2022-12-05T09:23:23.973Z,1011.58
2022-12-05T09:24:23.988Z,1011.61
2022-12-05T09:25:23.950Z,1011.62
2022-12-05T09:26:23.949Z,1011.61
2022-12-05T09:27:23.929Z,1011.62
2022-12-05T09:28:23.934Z,1011.61
2022-12-05T09:29:23.936Z,1011.66
2022-12-05T09:30:23.910Z,1011.64
2022-12-05T09:31:23.992Z,1011.63
2022-12-05T09:32:23.917Z,1011.69
2022-12-05T09:33:23.862Z,1011.66
2022-12-05T09:34:23.900Z,1011.66
2022-12-05T09:35:23.847Z,1011.69
2022-12-05T09:36:23.859Z,1011.64
2022-12-05T09:37:38.849Z,1011.72
2022-12-05T09:38:23.822Z,1011.67
2022-12-05T09:39:23.821Z,1011.67
2022-12-05T09:40:23.791Z,1011.66
2022-12-05T09:41:23.791Z,1011.68
2022-12-05T09:42:23.766Z,1011.72
2022-12-05T09:43:23.750Z,1011.71
2022-12-05T09:44:23.779Z,1011.74
2022-12-05T09:45:23.730Z,1011.73
2022-12-05T09:46:23.804Z,1011.74
2022-12-05T09:47:23.718Z,1011.72
2022-12-05T09:48:23.714Z,1011.74
2022-12-05T09:49:23.712Z,1011.72
2022-12-05T09:50:23.799Z,1011.72
2022-12-05T09:51:23.667Z,1011.76
2022-12-05T09:52:23.659Z,1011.76
2022-12-05T09:53:23.641Z,1011.72
2022-12-05T09:54:23.661Z,1011.75
2022-12-05T09:55:23.620Z,1011.74
2022-12-05T09:56:23.628Z,1011.72
2022-12-05T09:57:23.608Z,1011.70
2022-12-05T09:58:23.589Z,1011.70
2022-12-05T09:59:23.599Z,1011.72
2022-12-05T10:00:23.567Z,1011.68
2022-12-05T10:01:23.624Z,1011.68
2022-12-05T10:02:23.548Z,1011.70
2022-12-05T10:03:23.530Z,1011.72
2022-12-05T10:04:23.632Z,1011.66
2022-12-05T10:05:23.600Z,1011.70
2022-12-05T10:06:23.510Z,1011.71
2022-12-05T10:07:23.492Z,1011.71
2022-12-05T10:08:23.507Z,1011.73
2022-12-05T10:09:23.490Z,1011.75
2022-12-05T10:10:23.453Z,1011.71
2022-12-05T10:11:23.452Z,1011.67
2022-12-05T10:12:23.429Z,1011.71
2022-12-05T10:13:23.424Z,1011.73
2022-12-05T10:14:23.432Z,1011.74
2022-12-05T10:15:23.406Z,1011.73
2022-12-05T10:16:23.426Z,1011.71
2022-12-05T10:17:23.379Z,1011.71
2022-12-05T10:18:23.371Z,1011.73
2022-12-05T10:19:23.379Z,1011.72
2022-12-05T10:20:23.342Z,1011.67
2022-12-05T10:21:23.341Z,1011.68
2022-12-05T10:22:23.318Z,1011.63
2022-12-05T10:23:55.652Z,1011.67
2022-12-05T10:24:23.327Z,1011.69
2022-12-05T10:25:23.291Z,1011.65
2022-12-05T10:26:23.278Z,1011.62
2022-12-05T10:27:23.276Z,1011.65
2022-12-05T10:28:23.260Z,1011.68
2022-12-05T10:29:23.268Z,1011.70
2022-12-05T10:30:23.230Z,1011.68
2022-12-05T10:31:23.257Z,1011.64
2022-12-05T10:32:23.217Z,1011.64
2022-12-05T10:33:23.210Z,1011.65
2022-12-05T10:34:23.208Z,1011.65
2022-12-05T10:35:23.179Z,1011.66
2022-12-05T10:36:23.165Z,1011.64
2022-12-05T10:37:23.160Z,1011.66
2022-12-05T10:38:23.144Z,1011.65
2022-12-05T10:39:23.157Z,1011.61
2022-12-05T10:40:23.118Z,1011.60
2022-12-05T10:41:23.114Z,1011.58
2022-12-05T10:42:23.104Z,1011.60
2022-12-05T10:43:23.091Z,1011.56
2022-12-05T10:44:23.096Z,1011.57
2022-12-05T10:45:23.069Z,1011.58
2022-12-05T10:46:23.117Z,1011.57
2022-12-05T10:47:23.047Z,1011.57
2022-12-05T10:48:23.036Z,1011.58
2022-12-05T10:49:23.053Z,1011.54
2022-12-05T10:50:23.012Z,1011.58
2022-12-05T10:51:23.003Z,1011.54
2022-12-05T10:52:22.987Z,1011.51
2022-12-05T10:53:22.984Z,1011.56
2022-12-05T10:54:22.985Z,1011.53
2022-12-05T10:55:22.955Z,1011.52
2022-12-05T10:56:30.343Z,1011.59
2022-12-05T10:57:22.954Z,1011.53
2022-12-05T10:58:22.924Z,1011.56
2022-12-05T10:59:22.935Z,1011.51
2022-12-05T11:00:22.900Z,1011.49
2022-12-05T11:01:22.947Z,1011.53
2022-12-05T11:02:22.993Z,1011.48
2022-12-05T11:03:22.878Z,1011.50
2022-12-05T11:04:22.885Z,1011.51
2022-12-05T11:05:22.889Z,1011.51
2022-12-05T11:06:22.834Z,1011.50
2022-12-05T11:07:22.827Z,1011.54
2022-12-05T11:08:41.405Z,1011.50
2022-12-05T11:09:22.830Z,1011.53
2022-12-05T11:10:26.566Z,1011.54
2022-12-05T11:11:22.780Z,1011.57
2022-12-05T11:12:22.771Z,1011.56
2022-12-05T11:13:22.758Z,1011.53
2022-12-05T11:14:22.769Z,1011.54
2022-12-05T11:15:22.730Z,1011.52
2022-12-05T11:16:22.774Z,1011.54
2022-12-05T11:17:22.719Z,1011.49
2022-12-05T11:18:22.722Z,1011.48
2022-12-05T11:19:22.729Z,1011.48
2022-12-05T11:20:22.682Z,1011.54
2022-12-05T11:21:22.665Z,1011.53
2022-12-05T11:22:22.668Z,1011.47
2022-12-05T11:23:22.644Z,1011.46
2022-12-05T11:24:22.678Z,1011.48
2022-12-05T11:25:22.625Z,1011.44
2022-12-05T11:26:22.626Z,1011.49
2022-12-05T11:27:22.620Z,1011.47
2022-12-05T11:28:22.594Z,1011.47
2022-12-05T11:29:22.599Z,1011.44
2022-12-05T11:30:22.580Z,1011.43
2022-12-05T11:31:22.631Z,1011.44
2022-12-05T11:32:22.557Z,1011.45
2022-12-05T11:33:22.533Z,1011.42
2022-12-05T11:34:22.549Z,1011.43
2022-12-05T11:35:22.513Z,1011.40
2022-12-05T11:36:22.504Z,1011.42
2022-12-05T11:37:22.490Z,1011.42
2022-12-05T11:38:22.513Z,1011.34
2022-12-05T11:39:22.491Z,1011.38
2022-12-05T11:40:28.052Z,1011.37
2022-12-05T11:41:22.450Z,1011.36
2022-12-05T11:42:22.441Z,1011.34
2022-12-05T11:43:22.427Z,1011.34
2022-12-05T11:44:22.459Z,1011.34
2022-12-05T11:45:22.414Z,1011.32
2022-12-05T11:46:26.648Z,1011.32
2022-12-05T11:47:22.379Z,1011.31
2022-12-05T11:48:22.372Z,1011.29
2022-12-05T11:49:22.379Z,1011.28
2022-12-05T11:50:22.355Z,1011.29
2022-12-05T11:51:22.334Z,1011.28
2022-12-05T11:52:22.328Z,1011.28
2022-12-05T11:53:22.311Z,1011.26
2022-12-05T11:54:41.608Z,1011.26
2022-12-05T11:55:22.520Z,1011.30
2022-12-05T11:56:22.301Z,1011.30
2022-12-05T11:57:22.267Z,1011.25
2022-12-05T11:58:22.263Z,1011.26
2022-12-05T11:59:22.274Z,1011.25
2022-12-05T12:00:22.238Z,1011.28
2022-12-05T12:01:22.227Z,1011.23
2022-12-05T12:02:22.371Z,1011.27
2022-12-05T12:03:22.239Z,1011.28
2022-12-05T12:04:22.215Z,1011.29
2022-12-05T12:05:22.179Z,1011.31